Time;durP1;ratioP1;P1;durP2;ratioP2;P2;SDS_P1;SDS_P2;PMS_P1;PMS_P2;Temp;Humidity;BMP_temperature;BMP_pressure;BME280_temperature;BME280_humidity;BME280_pressure;Samples;Min_cycle;Max_cycle;Signal;HPM_P1;HPM_P2
2024/01/26 00:02:19;;;;;;;88.40;44.92;;;9.00;99.90;;;;;;5009295;28;20049;-74
2024/01/26 00:04:45;;;;;;;94.40;46.33;;;9.00;99.90;;;;;;5019280;28;20041;-75
2024/01/26 00:07:11;;;;;;;90.10;44.10;;;9.10;99.90;;;;;;5005903;28;20511;-74
2024/01/26 00:09:37;;;;;;;90.20;46.13;;;9.10;99.90;;;;;;5021330;28;20038;-74
2024/01/26 00:12:06;;;;;;;79.70;43.38;;;9.10;99.90;;;;;;5024702;28;20045;-74
2024/01/26 00:14:32;;;;;;;83.22;45.85;;;9.10;99.90;;;;;;5005101;28;20045;-75
2024/01/26 00:16:57;;;;;;;92.03;45.67;;;9.10;99.90;;;;;;5026762;28;20056;-74
2024/01/26 00:19:23;;;;;;;116.05;51.65;;;9.10;99.90;;;;;;5013890;28;20049;-75
2024/01/26 00:21:49;;;;;;;97.45;48.83;;;9.10;99.90;;;;;;5017555;28;20038;-74
2024/01/26 00:24:14;;;;;;;123.30;48.47;;;9.10;99.90;;;;;;5015580;28;20499;-74
2024/01/26 00:26:40;;;;;;;98.88;47.75;;;9.20;99.90;;;;;;5022993;28;20266;-74
2024/01/26 00:29:06;;;;;;;107.22;49.85;;;9.20;99.90;;;;;;5019110;28;20107;-74
2024/01/26 00:31:32;;;;;;;115.65;50.63;;;9.20;99.90;;;;;;5017311;28;20080;-74
2024/01/26 00:33:58;;;;;;;87.85;46.60;;;9.20;99.90;;;;;;5013646;28;20033;-75
2024/01/26 00:36:24;;;;;;;96.05;48.65;;;9.20;99.90;;;;;;5020421;28;20041;-75
2024/01/26 00:38:50;;;;;;;116.38;50.70;;;9.30;99.90;;;;;;5024858;28;21169;-75
2024/01/26 00:41:16;;;;;;;92.15;47.92;;;9.30;99.90;;;;;;5021220;28;20346;-75
2024/01/26 00:43:41;;;;;;;80.32;44.47;;;9.30;99.90;;;;;;5018201;28;20044;-74
2024/01/26 00:46:08;;;;;;;91.07;47.13;;;9.30;99.90;;;;;;5010658;28;20053;-74
2024/01/26 00:48:33;;;;;;;83.05;44.25;;;9.30;99.90;;;;;;5020720;28;20048;-75
2024/01/26 00:50:59;;;;;;;87.15;45.40;;;9.40;99.90;;;;;;5022550;28;20040;-75
2024/01/26 00:53:25;;;;;;;84.97;45.03;;;9.40;99.90;;;;;;5020749;28;20056;-74
2024/01/26 00:55:51;;;;;;;74.57;42.92;;;9.40;99.90;;;;;;5019683;28;20124;-75
2024/01/26 00:58:17;;;;;;;78.78;45.28;;;9.40;99.90;;;;;;5018799;28;20053;-74
2024/01/26 01:00:43;;;;;;;83.15;43.97;;;9.40;99.90;;;;;;5023721;28;20045;-75
2024/01/26 01:03:09;;;;;;;68.35;40.45;;;9.40;99.90;;;;;;5020260;28;20060;-74
2024/01/26 01:05:34;;;;;;;72.47;42.55;;;9.40;99.90;;;;;;5022230;28;20154;-74
2024/01/26 01:08:00;;;;;;;74.93;43.53;;;9.40;99.90;;;;;;5014852;28;20040;-74
2024/01/26 01:10:26;;;;;;;74.85;42.72;;;9.50;99.90;;;;;;5029145;28;20450;-74
2024/01/26 01:12:55;;;;;;;76.25;42.65;;;9.50;99.90;;;;;;5015148;28;20041;-74
2024/01/26 01:15:23;;;;;;;70.43;40.22;;;9.40;99.90;;;;;;5005829;28;20049;-74
2024/01/26 01:17:49;;;;;;;72.60;42.88;;;9.50;99.90;;;;;;5020491;28;20038;-74
2024/01/26 01:20:17;;;;;;;78.22;43.42;;;9.50;99.90;;;;;;5025911;28;20055;-75
2024/01/26 01:22:44;;;;;;;77.20;43.75;;;9.50;99.90;;;;;;5000625;28;20033;-74
2024/01/26 01:25:13;;;;;;;68.47;42.30;;;9.50;99.90;;;;;;5024712;28;20049;-74
2024/01/26 01:27:39;;;;;;;69.78;42.33;;;9.50;99.90;;;;;;5021101;28;20106;-79
2024/01/26 01:30:06;;;;;;;75.25;42.70;;;9.60;99.90;;;;;;5022028;28;20052;-79
2024/01/26 01:32:32;;;;;;;67.47;42.78;;;9.60;99.90;;;;;;5021405;28;20045;-79
2024/01/26 01:34:58;;;;;;;69.13;43.13;;;9.60;99.90;;;;;;5019096;28;20120;-79
2024/01/26 01:37:24;;;;;;;70.65;42.42;;;9.60;99.90;;;;;;5017385;28;20096;-78
2024/01/26 01:39:50;;;;;;;69.40;43.55;;;9.60;99.90;;;;;;5029878;28;20138;-78
2024/01/26 01:42:16;;;;;;;75.75;45.72;;;9.60;99.90;;;;;;5004570;28;20045;-79
2024/01/26 01:44:43;;;;;;;65.80;43.35;;;9.60;99.90;;;;;;5021861;28;20065;-73
2024/01/26 01:47:15;;;;;;;74.07;45.63;;;9.60;99.90;;;;;;5014569;28;20443;-73
2024/01/26 01:49:43;;;;;;;69.63;44.70;;;9.60;99.90;;;;;;5024826;28;20558;-74
2024/01/26 01:52:12;;;;;;;70.60;45.28;;;9.60;99.90;;;;;;5022069;28;20037;-74
2024/01/26 01:54:39;;;;;;;62.77;42.33;;;9.60;99.90;;;;;;5008222;28;20036;-74
2024/01/26 01:57:05;;;;;;;63.65;43.47;;;9.60;99.90;;;;;;5019474;28;20045;-73
2024/01/26 01:59:31;;;;;;;64.40;42.20;;;9.60;99.90;;;;;;5021568;28;20045;-73
2024/01/26 02:01:57;;;;;;;64.15;43.10;;;9.60;99.90;;;;;;5021661;28;20043;-74
2024/01/26 02:04:23;;;;;;;60.10;39.80;;;9.60;99.90;;;;;;5021490;28;20500;-73
2024/01/26 02:06:56;;;;;;;55.42;38.45;;;9.60;99.90;;;;;;5007622;28;20052;-73
2024/01/26 02:09:22;;;;;;;54.58;38.60;;;9.60;99.90;;;;;;5017792;28;20053;-73
2024/01/26 02:11:48;;;;;;;52.60;39.05;;;9.60;99.90;;;;;;5020309;28;20041;-73
2024/01/26 02:14:14;;;;;;;51.63;37.83;;;9.70;99.90;;;;;;5020039;28;20077;-73
2024/01/26 02:16:51;;;;;;;52.03;37.13;;;9.60;99.90;;;;;;5020260;28;20079;-74
2024/01/26 02:19:17;;;;;;;49.38;36.90;;;9.70;99.90;;;;;;5016906;28;20050;-73
2024/01/26 02:21:43;;;;;;;43.00;32.85;;;9.70;99.90;;;;;;5018367;28;20044;-74
2024/01/26 02:24:13;;;;;;;42.67;33.63;;;9.60;99.90;;;;;;5011525;28;20110;-74
2024/01/26 02:26:39;;;;;;;47.20;35.08;;;9.70;99.90;;;;;;5004361;28;20449;-74
2024/01/26 02:29:05;;;;;;;46.88;35.33;;;9.70;99.90;;;;;;5019773;28;20038;-73
2024/01/26 02:31:31;;;;;;;43.55;34.10;;;9.70;99.90;;;;;;5016434;28;20118;-74
2024/01/26 02:33:57;;;;;;;43.40;32.97;;;9.70;99.90;;;;;;5020490;28;20071;-75
2024/01/26 02:36:22;;;;;;;42.28;33.53;;;9.70;99.90;;;;;;5020683;28;20045;-74
2024/01/26 02:38:48;;;;;;;38.03;30.88;;;9.70;99.90;;;;;;5018350;28;20046;-74
2024/01/26 02:41:15;;;;;;;40.78;33.20;;;9.70;99.90;;;;;;5020721;28;20056;-74
2024/01/26 02:43:41;;;;;;;40.10;32.50;;;9.70;99.90;;;;;;5018884;28;20051;-74
2024/01/26 02:46:10;;;;;;;38.95;31.40;;;9.70;99.90;;;;;;5002276;28;20040;-75
2024/01/26 02:48:36;;;;;;;42.30;32.78;;;9.70;99.90;;;;;;5014962;28;20084;-74
2024/01/26 02:51:02;;;;;;;38.33;30.67;;;9.70;99.90;;;;;;5016544;28;20398;-74
2024/01/26 02:53:27;;;;;;;38.65;31.27;;;9.70;99.90;;;;;;5021251;28;20098;-74
2024/01/26 02:55:53;;;;;;;37.15;30.30;;;9.70;99.90;;;;;;5014117;28;20045;-75
2024/01/26 02:58:19;;;;;;;35.67;30.20;;;9.70;99.90;;;;;;5004240;28;20130;-74
2024/01/26 03:00:45;;;;;;;37.20;30.05;;;9.70;99.90;;;;;;5022257;28;20452;-75
2024/01/26 03:03:10;;;;;;;35.20;29.42;;;9.70;99.90;;;;;;5029054;28;20072;-75
2024/01/26 03:05:36;;;;;;;37.80;30.60;;;9.70;99.90;;;;;;5006679;28;20053;-74
2024/01/26 03:08:02;;;;;;;37.45;30.13;;;9.70;99.90;;;;;;5014193;28;20032;-74
2024/01/26 03:10:28;;;;;;;34.55;28.85;;;9.70;99.90;;;;;;5021458;28;20044;-75
2024/01/26 03:12:55;;;;;;;32.40;27.65;;;9.70;99.90;;;;;;5009226;28;20400;-75
2024/01/26 03:15:20;;;;;;;33.80;28.08;;;9.70;99.90;;;;;;5028488;28;20908;-75
2024/01/26 03:17:46;;;;;;;33.53;28.27;;;9.70;99.90;;;;;;5027672;28;20120;-74
2024/01/26 03:20:12;;;;;;;34.15;27.77;;;9.70;99.90;;;;;;5010756;28;20719;-75
2024/01/26 03:22:38;;;;;;;32.75;27.42;;;9.70;99.90;;;;;;5011774;28;20040;-75
2024/01/26 03:25:04;;;;;;;33.00;28.13;;;9.70;99.90;;;;;;5030387;28;20072;-74
2024/01/26 03:27:33;;;;;;;30.42;25.98;;;9.70;99.90;;;;;;5028596;28;20055;-75
2024/01/26 03:29:58;;;;;;;31.70;27.40;;;9.70;99.90;;;;;;5027940;28;20033;-74
2024/01/26 03:32:25;;;;;;;33.10;28.00;;;9.80;99.90;;;;;;5028556;28;20059;-74
2024/01/26 03:34:51;;;;;;;33.45;26.83;;;9.80;99.90;;;;;;5022843;28;20418;-74
2024/01/26 03:37:17;;;;;;;35.47;28.90;;;9.70;99.90;;;;;;5005711;28;20057;-75
2024/01/26 03:39:43;;;;;;;33.03;27.98;;;9.80;99.90;;;;;;5009085;28;20053;-74
2024/01/26 03:42:11;;;;;;;33.65;27.92;;;9.80;99.90;;;;;;5006591;28;20041;-75
2024/01/26 03:44:38;;;;;;;35.97;28.70;;;9.80;99.90;;;;;;5005636;28;20045;-74
2024/01/26 03:47:07;;;;;;;33.80;27.60;;;9.80;99.90;;;;;;5021554;28;20036;-74
2024/01/26 03:49:33;;;;;;;32.75;27.13;;;9.80;99.90;;;;;;5026938;28;20072;-74
2024/01/26 03:51:58;;;;;;;35.90;29.20;;;9.80;99.90;;;;;;5012667;28;20072;-75
2024/01/26 03:54:24;;;;;;;38.78;29.50;;;9.80;99.90;;;;;;5005965;28;20053;-74
2024/01/26 03:56:50;;;;;;;38.58;29.52;;;9.80;99.90;;;;;;5012132;28;20870;-74
2024/01/26 03:59:15;;;;;;;35.90;28.20;;;9.80;99.90;;;;;;5012200;28;20060;-74
2024/01/26 04:01:44;;;;;;;37.95;28.45;;;9.90;99.90;;;;;;5028510;28;20044;-74
2024/01/26 04:04:10;;;;;;;37.08;28.23;;;9.90;99.90;;;;;;5023925;28;20045;-74
2024/01/26 04:06:40;;;;;;;34.65;28.30;;;9.90;99.90;;;;;;5029287;28;20048;-74
2024/01/26 04:09:09;;;;;;;37.88;27.67;;;9.90;99.90;;;;;;5025955;28;20578;-74
2024/01/26 04:11:35;;;;;;;37.67;28.73;;;9.90;99.90;;;;;;5027824;28;20072;-74
2024/01/26 04:14:01;;;;;;;35.58;27.95;;;9.90;99.90;;;;;;5026949;28;20503;-74
2024/01/26 04:16:26;;;;;;;35.03;27.50;;;10.00;99.90;;;;;;5028364;28;20061;-74
2024/01/26 04:18:52;;;;;;;35.92;27.85;;;9.90;99.90;;;;;;5026891;28;20037;-74
2024/01/26 04:21:18;;;;;;;33.42;27.15;;;10.00;99.90;;;;;;5027144;28;20060;-74
2024/01/26 04:23:48;;;;;;;38.63;27.63;;;10.00;99.90;;;;;;5023241;28;20657;-74
2024/01/26 04:26:15;;;;;;;32.13;25.77;;;10.10;99.90;;;;;;5048793;28;20079;-74
2024/01/26 04:28:41;;;;;;;35.55;27.60;;;10.10;99.90;;;;;;5020006;28;20041;-74
2024/01/26 04:31:07;;;;;;;31.98;26.50;;;10.10;99.90;;;;;;5027663;28;20048;-75
2024/01/26 04:33:33;;;;;;;32.72;25.98;;;10.10;99.90;;;;;;5028523;28;20045;-74
2024/01/26 04:35:59;;;;;;;32.42;25.88;;;10.10;99.90;;;;;;5045847;28;20102;-75
2024/01/26 04:38:25;;;;;;;28.65;25.50;;;10.10;99.90;;;;;;5026884;28;20045;-74
2024/01/26 04:40:51;;;;;;;30.75;25.88;;;10.20;99.90;;;;;;5025353;28;20064;-74
2024/01/26 04:43:19;;;;;;;28.50;25.40;;;10.20;99.90;;;;;;5024357;28;20048;-75
2024/01/26 04:45:45;;;;;;;30.95;26.02;;;10.20;99.90;;;;;;5004573;28;20051;-74
2024/01/26 04:48:12;;;;;;;32.33;24.63;;;10.20;99.90;;;;;;5028584;28;20052;-74
2024/01/26 04:50:37;;;;;;;29.10;25.92;;;10.20;99.90;;;;;;5010316;28;20152;-74
2024/01/26 04:53:03;;;;;;;31.20;25.85;;;10.30;99.90;;;;;;5028010;28;20116;-74
2024/01/26 04:55:29;;;;;;;31.27;26.50;;;10.30;99.90;;;;;;5009597;28;20075;-74
2024/01/26 04:57:55;;;;;;;31.10;27.35;;;10.30;99.90;;;;;;5018063;28;20523;-75
2024/01/26 05:00:21;;;;;;;30.35;26.95;;;10.30;99.90;;;;;;5017803;28;20076;-74
2024/01/26 05:02:47;;;;;;;31.52;27.50;;;10.30;99.90;;;;;;5005468;28;20527;-74
2024/01/26 05:05:13;;;;;;;32.13;27.02;;;10.30;99.90;;;;;;4999826;28;20045;-74
2024/01/26 05:07:39;;;;;;;32.47;27.95;;;10.30;99.90;;;;;;5017147;28;20049;-74
2024/01/26 05:10:08;;;;;;;33.08;28.38;;;10.40;99.90;;;;;;5006458;28;20033;-74
2024/01/26 05:12:34;;;;;;;32.23;27.97;;;10.40;99.90;;;;;;5015095;28;20083;-75
2024/01/26 05:15:03;;;;;;;31.63;27.98;;;10.40;99.90;;;;;;5014436;28;20400;-74
2024/01/26 05:17:29;;;;;;;30.67;27.45;;;10.40;99.90;;;;;;5026240;28;20049;-75
2024/01/26 05:19:55;;;;;;;32.63;29.25;;;10.40;99.90;;;;;;5000172;28;20040;-75
2024/01/26 05:22:20;;;;;;;35.00;29.15;;;10.50;99.90;;;;;;5022412;28;20075;-75
2024/01/26 05:24:46;;;;;;;31.92;28.60;;;10.50;99.90;;;;;;5021133;28;20074;-74
2024/01/26 05:27:12;;;;;;;32.25;28.48;;;10.50;99.90;;;;;;5017298;28;20053;-75
2024/01/26 05:29:38;;;;;;;35.33;30.70;;;10.50;99.90;;;;;;5023427;28;20068;-74
2024/01/26 05:32:05;;;;;;;32.17;28.67;;;10.60;99.90;;;;;;5025903;28;20034;-75
2024/01/26 05:34:34;;;;;;;33.15;29.50;;;10.60;99.90;;;;;;5035473;28;20051;-74
2024/01/26 05:37:00;;;;;;;33.40;29.88;;;10.60;99.90;;;;;;5024434;28;20043;-75
2024/01/26 05:39:35;;;;;;;31.13;27.90;;;10.70;99.90;;;;;;5020569;28;20480;-75
2024/01/26 05:42:04;;;;;;;33.70;30.20;;;10.60;99.90;;;;;;5022288;28;20098;-75
2024/01/26 05:44:30;;;;;;;33.63;29.88;;;10.70;99.90;;;;;;5023145;28;20126;-75
2024/01/26 05:46:55;;;;;;;33.97;28.98;;;10.70;99.90;;;;;;5029281;28;21320;-74
2024/01/26 05:49:23;;;;;;;32.47;29.08;;;10.60;99.90;;;;;;5020115;28;20049;-74
2024/01/26 05:51:49;;;;;;;31.52;28.33;;;10.70;99.90;;;;;;5017933;28;20077;-75
2024/01/26 05:54:14;;;;;;;31.48;28.17;;;10.60;99.90;;;;;;5022105;28;20088;-75
2024/01/26 05:56:40;;;;;;;28.92;25.88;;;10.60;99.90;;;;;;5014302;28;20497;-75
2024/01/26 05:59:07;;;;;;;31.38;27.90;;;10.60;99.90;;;;;;5016925;28;20041;-74
2024/01/26 06:01:34;;;;;;;29.17;26.10;;;10.70;99.90;;;;;;5022175;28;20709;-75
2024/01/26 06:04:00;;;;;;;30.58;27.05;;;10.70;99.90;;;;;;5024417;28;20055;-75
2024/01/26 06:06:26;;;;;;;31.90;27.23;;;10.70;99.90;;;;;;5020338;28;20045;-75
2024/01/26 06:08:51;;;;;;;30.48;26.80;;;10.70;99.90;;;;;;5004547;28;20523;-75
2024/01/26 06:11:20;;;;;;;32.38;28.00;;;10.70;99.90;;;;;;5022920;28;20176;-75
2024/01/26 06:13:46;;;;;;;33.53;29.15;;;10.70;99.90;;;;;;5010175;28;20041;-75
2024/01/26 06:16:15;;;;;;;29.17;26.08;;;10.70;99.90;;;;;;5022392;28;20048;-74
2024/01/26 06:18:43;;;;;;;31.77;27.15;;;10.70;99.90;;;;;;5009229;28;20484;-75
2024/01/26 06:21:11;;;;;;;36.40;27.67;;;10.70;99.90;;;;;;5004050;28;20074;-75
2024/01/26 06:23:38;;;;;;;32.70;27.67;;;10.70;99.90;;;;;;5019299;28;20744;-75
2024/01/26 06:26:04;;;;;;;33.55;29.42;;;10.70;99.90;;;;;;5024461;28;20033;-75
2024/01/26 06:28:30;;;;;;;31.35;28.00;;;10.70;99.90;;;;;;5019849;28;20594;-75
2024/01/26 06:30:56;;;;;;;31.73;27.48;;;10.80;99.90;;;;;;5018944;28;20506;-76
2024/01/26 06:33:22;;;;;;;32.75;27.58;;;10.70;99.90;;;;;;5020677;28;20159;-81
2024/01/26 06:35:48;;;;;;;31.48;27.00;;;10.70;99.90;;;;;;5017713;28;20057;-81
2024/01/26 06:38:13;;;;;;;32.33;26.23;;;10.70;99.90;;;;;;5021130;28;20059;-82
2024/01/26 06:40:40;;;;;;;32.35;25.88;;;10.70;99.90;;;;;;5017707;28;20476;-82
2024/01/26 06:43:07;;;;;;;33.50;26.67;;;10.70;99.90;;;;;;5022254;28;20033;-82
2024/01/26 06:45:33;;;;;;;31.15;26.08;;;10.70;99.90;;;;;;5002057;28;20052;-81
2024/01/26 06:48:03;;;;;;;30.60;25.65;;;10.70;99.90;;;;;;5028174;28;20052;-80
2024/01/26 06:50:28;;;;;;;29.67;24.15;;;10.70;99.90;;;;;;5019588;28;20056;-80
2024/01/26 06:52:54;;;;;;;30.40;24.60;;;10.70;99.90;;;;;;5034998;28;20033;-78
2024/01/26 06:55:20;;;;;;;32.55;24.75;;;10.70;99.90;;;;;;5021233;28;20053;-78
2024/01/26 06:57:45;;;;;;;28.45;23.08;;;10.70;99.90;;;;;;5034399;28;20041;-78
2024/01/26 07:00:12;;;;;;;33.28;23.95;;;10.70;99.90;;;;;;5016154;28;20055;-77
2024/01/26 07:02:38;;;;;;;26.50;22.10;;;10.70;99.90;;;;;;5017749;28;20064;-77
2024/01/26 07:05:04;;;;;;;25.75;21.17;;;10.70;99.90;;;;;;5019332;28;20049;-78
2024/01/26 07:07:29;;;;;;;27.60;21.20;;;10.80;99.90;;;;;;5023458;28;20090;-76
2024/01/26 07:09:55;;;;;;;29.58;22.50;;;10.70;99.90;;;;;;5019642;28;20061;-77
2024/01/26 07:12:21;;;;;;;23.50;19.70;;;10.80;99.90;;;;;;5020014;28;20064;-78
2024/01/26 07:14:47;;;;;;;25.60;18.15;;;10.80;99.90;;;;;;5018251;28;20123;-77
2024/01/26 07:17:13;;;;;;;25.50;19.02;;;10.80;99.90;;;;;;5018189;28;20474;-77
2024/01/26 07:19:39;;;;;;;21.73;17.27;;;10.90;99.90;;;;;;5020234;28;20049;-76
2024/01/26 07:22:05;;;;;;;19.63;17.52;;;10.80;99.90;;;;;;5020952;28;20107;-77
2024/01/26 07:24:31;;;;;;;19.20;16.35;;;10.80;99.90;;;;;;5023931;28;20044;-77
2024/01/26 07:26:57;;;;;;;19.65;15.13;;;10.80;99.90;;;;;;5022105;28;20041;-77
2024/01/26 07:29:23;;;;;;;17.17;14.85;;;10.80;99.90;;;;;;5019198;28;20045;-77
2024/01/26 07:31:50;;;;;;;15.05;13.35;;;10.80;99.90;;;;;;5011465;28;20107;-77
2024/01/26 07:34:16;;;;;;;17.38;14.05;;;10.90;99.90;;;;;;5017640;28;20038;-76
2024/01/26 07:36:42;;;;;;;23.20;15.23;;;10.90;99.90;;;;;;5008762;28;20061;-77
2024/01/26 07:39:08;;;;;;;16.58;14.40;;;10.80;99.90;;;;;;5019922;28;20041;-77
2024/01/26 07:41:34;;;;;;;16.85;13.10;;;10.80;99.90;;;;;;5019385;28;20044;-77
2024/01/26 07:44:02;;;;;;;17.63;13.32;;;10.80;99.90;;;;;;5010816;28;20033;-77
2024/01/26 07:46:28;;;;;;;19.48;13.95;;;10.90;99.90;;;;;;5022257;28;20131;-76
2024/01/26 07:48:54;;;;;;;15.20;12.85;;;10.80;99.90;;;;;;5014717;28;20199;-76
2024/01/26 07:51:19;;;;;;;13.90;12.40;;;10.80;99.90;;;;;;5016311;28;20049;-76
2024/01/26 07:53:46;;;;;;;19.25;12.15;;;10.90;99.90;;;;;;5008744;28;20045;-77
2024/01/26 07:56:11;;;;;;;16.60;13.63;;;10.90;99.90;;;;;;5020137;28;20057;-77
2024/01/26 07:58:38;;;;;;;14.48;11.75;;;10.90;99.90;;;;;;5022786;28;20048;-78
2024/01/26 08:01:05;;;;;;;13.15;11.60;;;10.90;99.90;;;;;;5016680;28;20425;-76
2024/01/26 08:03:31;;;;;;;14.35;10.75;;;10.90;99.90;;;;;;5027000;28;20156;-77
2024/01/26 08:05:57;;;;;;;13.82;10.07;;;10.90;99.90;;;;;;5026171;28;20124;-76
2024/01/26 08:08:23;;;;;;;11.63;10.05;;;10.90;99.90;;;;;;5019027;28;20045;-75
2024/01/26 08:10:49;;;;;;;11.93;10.35;;;11.00;99.90;;;;;;5002330;28;20047;-74
2024/01/26 08:13:14;;;;;;;11.45;9.73;;;10.90;99.90;;;;;;5016448;28;20049;-74
2024/01/26 08:15:40;;;;;;;11.20;9.43;;;11.00;99.90;;;;;;4997951;28;20046;-75
2024/01/26 08:18:06;;;;;;;10.57;9.20;;;11.00;99.90;;;;;;4995937;28;20453;-75
2024/01/26 08:20:32;;;;;;;11.55;9.50;;;10.90;99.90;;;;;;5016017;28;20042;-74
2024/01/26 08:22:58;;;;;;;12.38;10.25;;;11.00;99.90;;;;;;5015393;28;20116;-75
2024/01/26 08:25:24;;;;;;;11.88;10.15;;;11.00;99.90;;;;;;5013844;28;20045;-76
2024/01/26 08:27:51;;;;;;;13.80;11.30;;;11.00;99.90;;;;;;5020202;28;20038;-77
2024/01/26 08:30:17;;;;;;;14.32;11.90;;;11.00;99.90;;;;;;5017081;28;20496;-76
2024/01/26 08:32:45;;;;;;;14.70;12.77;;;11.00;99.90;;;;;;5016342;28;20068;-76
2024/01/26 08:35:11;;;;;;;16.25;12.88;;;11.00;99.90;;;;;;5008084;28;20396;-76
2024/01/26 08:37:38;;;;;;;17.83;14.40;;;11.00;99.90;;;;;;5016447;28;20050;-77
2024/01/26 08:40:06;;;;;;;18.75;14.55;;;11.00;99.90;;;;;;5013191;28;20045;-77
2024/01/26 08:42:33;;;;;;;18.70;15.32;;;11.00;99.90;;;;;;5012820;28;20120;-76
2024/01/26 08:44:59;;;;;;;19.92;17.00;;;11.10;99.90;;;;;;5001734;28;20147;-76
2024/01/26 08:47:25;;;;;;;23.27;18.15;;;11.00;99.90;;;;;;5015436;28;20127;-77
2024/01/26 08:49:50;;;;;;;19.55;17.35;;;11.10;99.90;;;;;;5019387;28;20074;-77
2024/01/26 08:52:16;;;;;;;20.58;17.02;;;11.10;99.90;;;;;;5017147;28;20063;-76
2024/01/26 08:54:42;;;;;;;21.33;18.70;;;11.10;99.90;;;;;;5016999;28;20064;-76
2024/01/26 08:57:08;;;;;;;23.30;19.02;;;11.10;99.90;;;;;;5023742;28;20041;-76
2024/01/26 08:59:34;;;;;;;18.20;15.30;;;11.10;99.90;;;;;;5021831;28;20483;-77
2024/01/26 09:02:02;;;;;;;20.50;16.95;;;11.10;99.90;;;;;;5021890;28;20037;-77
2024/01/26 09:04:28;;;;;;;22.48;16.83;;;11.10;99.90;;;;;;5020789;28;20057;-76
2024/01/26 09:06:54;;;;;;;20.67;17.10;;;11.10;99.90;;;;;;5018657;28;20041;-76
2024/01/26 09:09:20;;;;;;;20.42;16.48;;;11.20;99.90;;;;;;5003385;28;20046;-75
2024/01/26 09:11:45;;;;;;;17.92;14.82;;;11.20;99.90;;;;;;5022538;28;20052;-76
2024/01/26 09:14:11;;;;;;;22.50;14.35;;;11.20;99.90;;;;;;5007720;28;20041;-77
2024/01/26 09:16:37;;;;;;;18.02;13.02;;;11.20;99.90;;;;;;5030928;28;20053;-76
2024/01/26 09:19:03;;;;;;;18.13;13.02;;;11.20;99.90;;;;;;5005885;28;20047;-76
2024/01/26 09:21:29;;;;;;;19.90;12.55;;;11.20;99.90;;;;;;5024718;28;20045;-76
2024/01/26 09:23:55;;;;;;;19.00;10.60;;;11.20;99.90;;;;;;5016521;28;20470;-76
2024/01/26 09:26:21;;;;;;;13.95;8.07;;;11.10;99.90;;;;;;5005151;28;20112;-77
2024/01/26 09:28:47;;;;;;;7.57;2.65;;;11.10;99.90;;;;;;5009445;28;20041;-77
2024/01/26 09:31:13;;;;;;;5.55;1.60;;;11.00;99.90;;;;;;5023874;28;20122;-77
2024/01/26 09:33:38;;;;;;;4.20;1.40;;;10.70;99.90;;;;;;5025203;28;20037;-76
2024/01/26 09:36:07;;;;;;;4.65;1.63;;;10.50;99.90;;;;;;5017349;28;20037;-75
2024/01/26 09:38:33;;;;;;;6.95;1.42;;;10.20;99.90;;;;;;5011419;28;20049;-76
2024/01/26 09:40:59;;;;;;;6.20;1.40;;;10.00;99.90;;;;;;5020459;28;20053;-76
2024/01/26 09:43:25;;;;;;;7.60;2.03;;;9.80;99.90;;;;;;5023132;28;20041;-75
2024/01/26 09:45:53;;;;;;;4.97;1.38;;;9.70;99.90;;;;;;5019898;28;20071;-75
2024/01/26 09:48:22;;;;;;;5.40;1.40;;;9.60;99.90;;;;;;5027231;28;20431;-75
2024/01/26 09:50:51;;;;;;;6.82;1.67;;;9.60;99.90;;;;;;5026680;28;20553;-76
2024/01/26 09:53:18;;;;;;;8.20;1.75;;;9.50;99.90;;;;;;5010284;28;20037;-75
2024/01/26 09:55:47;;;;;;;6.78;1.58;;;9.40;99.90;;;;;;5017169;28;20411;-75
2024/01/26 09:58:14;;;;;;;7.97;1.67;;;9.30;99.90;;;;;;5014600;28;20068;-76
2024/01/26 10:00:45;;;;;;;10.52;1.95;;;9.20;99.90;;;;;;5027017;28;20044;-77
2024/01/26 10:03:12;;;;;;;13.57;2.78;;;9.20;99.90;;;;;;5019612;28;20136;-75
2024/01/26 10:05:38;;;;;;;11.52;2.35;;;9.20;99.90;;;;;;5024309;28;20048;-77
2024/01/26 10:08:10;;;;;;;12.75;2.40;;;9.10;99.90;;;;;;5019870;28;20048;-76
2024/01/26 10:10:37;;;;;;;11.90;2.65;;;9.10;99.90;;;;;;5012853;28;20041;-75
2024/01/26 10:13:06;;;;;;;11.63;2.20;;;9.00;99.90;;;;;;5020076;28;20100;-75
2024/01/26 10:15:32;;;;;;;11.45;2.72;;;9.00;99.90;;;;;;5007714;28;20062;-75
2024/01/26 10:17:58;;;;;;;9.30;2.53;;;8.90;99.90;;;;;;5021023;28;20037;-76
2024/01/26 10:20:27;;;;;;;13.35;3.13;;;8.90;99.90;;;;;;5019470;28;20692;-75
2024/01/26 10:22:53;;;;;;;17.95;3.72;;;8.90;99.90;;;;;;5019082;28;20052;-75
2024/01/26 10:25:22;;;;;;;12.98;2.47;;;8.90;99.90;;;;;;5019267;28;20408;-75
2024/01/26 10:27:48;;;;;;;16.95;3.33;;;8.80;99.90;;;;;;5024171;28;20049;-75
2024/01/26 10:30:14;;;;;;;15.43;2.75;;;8.80;99.90;;;;;;5015778;28;20492;-75
2024/01/26 10:32:40;;;;;;;16.10;2.72;;;8.80;99.90;;;;;;5027788;28;20056;-75
2024/01/26 10:35:07;;;;;;;14.10;3.00;;;8.80;99.90;;;;;;5016914;28;20046;-75
2024/01/26 10:37:36;;;;;;;15.02;3.03;;;8.70;99.90;;;;;;5014310;28;20045;-75
2024/01/26 10:40:08;;;;;;;21.15;3.90;;;8.70;99.90;;;;;;5014189;28;20044;-75
2024/01/26 10:42:36;;;;;;;18.27;3.55;;;8.70;99.90;;;;;;5024276;28;20492;-75
2024/01/26 10:45:06;;;;;;;16.63;3.10;;;8.70;99.90;;;;;;5022354;28;20053;-74
2024/01/26 10:47:33;;;;;;;13.93;3.22;;;8.60;99.90;;;;;;5020488;28;20057;-75
2024/01/26 10:50:04;;;;;;;16.60;3.75;;;8.60;99.90;;;;;;5040481;28;20103;-75
2024/01/26 10:52:34;;;;;;;15.45;3.65;;;8.60;99.90;;;;;;5023467;28;20061;-74
2024/01/26 10:55:02;;;;;;;17.33;4.00;;;8.60;99.90;;;;;;5027412;28;20048;-74
2024/01/26 10:57:28;;;;;;;12.30;3.25;;;8.60;99.90;;;;;;5016867;28;20076;-74
2024/01/26 10:59:54;;;;;;;11.90;2.70;;;8.60;99.90;;;;;;5015541;28;20530;-76
2024/01/26 11:02:33;;;;;;;15.32;3.38;;;8.60;99.90;;;;;;5023247;28;20075;-76
2024/01/26 11:05:00;;;;;;;19.10;4.00;;;8.60;99.90;;;;;;5009580;28;20435;-76
2024/01/26 11:07:26;;;;;;;12.10;3.35;;;8.60;99.90;;;;;;5010070;28;20048;-76
2024/01/26 11:09:59;;;;;;;17.17;3.22;;;8.60;99.90;;;;;;5025469;28;20402;-76
2024/01/26 11:12:26;;;;;;;16.77;3.35;;;8.70;99.90;;;;;;5018666;28;20072;-76
2024/01/26 11:15:11;;;;;;;17.17;3.97;;;8.70;99.90;;;;;;5018013;28;20096;-75
2024/01/26 11:17:58;;;;;;;16.40;3.80;;;8.60;99.90;;;;;;5020538;28;20096;-75
2024/01/26 11:20:32;;;;;;;15.40;3.78;;;8.60;99.90;;;;;;5015708;28;20084;-75
2024/01/26 11:23:09;;;;;;;13.40;3.85;;;8.60;99.90;;;;;;5015828;28;20046;-75
2024/01/26 11:25:41;;;;;;;15.75;3.45;;;8.60;99.90;;;;;;5015420;28;20045;-75
2024/01/26 11:28:08;;;;;;;15.68;3.78;;;8.60;99.90;;;;;;5028062;28;20052;-75
2024/01/26 11:30:37;;;;;;;16.10;4.05;;;8.60;99.90;;;;;;5015687;28;20041;-75
2024/01/26 11:33:17;;;;;;;17.63;4.03;;;8.60;99.90;;;;;;5024213;28;20033;-75
2024/01/26 11:35:45;;;;;;;18.00;3.80;;;8.60;99.90;;;;;;5011589;28;20033;-75
2024/01/26 11:38:12;;;;;;;17.70;3.80;;;8.50;99.90;;;;;;5012425;28;20048;-74
2024/01/26 11:40:38;;;;;;;18.23;3.78;;;8.60;99.90;;;;;;5013293;28;20058;-75
2024/01/26 11:43:04;;;;;;;13.88;3.05;;;8.60;99.90;;;;;;5017149;28;20522;-75
2024/01/26 11:45:40;;;;;;;13.43;3.70;;;8.60;99.90;;;;;;5015628;28;20053;-75
2024/01/26 11:48:07;;;;;;;14.27;3.10;;;8.60;99.90;;;;;;5019133;28;20102;-75
2024/01/26 11:50:33;;;;;;;14.00;4.07;;;8.60;99.90;;;;;;5023095;28;20049;-75
2024/01/26 11:52:59;;;;;;;16.95;4.15;;;8.60;99.90;;;;;;5016767;28;20049;-74
2024/01/26 11:55:25;;;;;;;18.60;4.05;;;8.50;99.90;;;;;;5018731;28;20115;-75
2024/01/26 11:57:51;;;;;;;12.65;3.25;;;8.60;99.90;;;;;;5013759;28;20431;-74
2024/01/26 12:00:20;;;;;;;15.20;3.25;;;8.60;99.90;;;;;;5016465;28;20118;-74
2024/01/26 12:02:46;;;;;;;21.02;4.18;;;8.60;99.90;;;;;;5019597;28;20207;-74
2024/01/26 12:05:12;;;;;;;16.70;4.20;;;8.50;99.90;;;;;;5017542;28;20095;-74
2024/01/26 12:07:38;;;;;;;17.85;4.22;;;8.50;99.90;;;;;;5019697;28;20111;-75
2024/01/26 12:10:05;;;;;;;14.70;3.60;;;8.50;99.90;;;;;;5000445;28;20034;-75
2024/01/26 12:12:31;;;;;;;18.85;4.57;;;8.40;99.90;;;;;;5021905;28;20053;-80
2024/01/26 12:14:57;;;;;;;17.73;4.05;;;8.40;99.90;;;;;;5022388;28;20135;-74
2024/01/26 12:17:23;;;;;;;19.60;4.85;;;8.40;99.90;;;;;;5014442;28;20171;-74
2024/01/26 12:19:52;;;;;;;17.40;4.03;;;8.40;99.90;;;;;;5020638;28;20409;-74
2024/01/26 12:22:18;;;;;;;20.40;4.50;;;8.40;99.90;;;;;;5024492;28;20192;-74
2024/01/26 12:24:44;;;;;;;22.20;5.22;;;8.40;99.90;;;;;;5000104;28;20116;-74
2024/01/26 12:27:10;;;;;;;19.20;5.18;;;8.40;99.90;;;;;;5019022;28;20497;-78
2024/01/26 12:29:36;;;;;;;22.73;5.05;;;8.40;99.90;;;;;;5024471;28;20086;-78
2024/01/26 12:32:08;;;;;;;18.50;5.25;;;8.30;99.90;;;;;;5019823;28;20033;-76
2024/01/26 12:34:36;;;;;;;21.33;4.07;;;8.30;99.90;;;;;;5021100;28;20087;-78